الصفحة الرئيسية
METAR-TAF:

METAR-TAF

مطار :

بونبي, مايكرونيزيا

دائرة عرض: 06-59N, خط طول: 158-12E, ارتفاع: 2 متر

مراقبة الطقس الحالي

تاريخ ووقت الإصدار 17 دقيقة قبل الساعة 21:50UTC
رياح هادئة
درجة الحرارة 26°درجة مئوية
الرطوبة 94%
ضغط 1012 hPa
الرؤية: 24.1 كم
غيوم متفرقة على ارتفاع 1800 قدم, مزن ركامية عمودية.
غيوم مفككة على ارتفاع 13000 قدم
ملبد بالغيوم على ارتفاع 30000 قدم

METAR: PTPN 052150Z 00000KT 15SM SCT018TCU BKN130 OVC300 26/25 A2987 RMK TCU ALQDS

زمن: 09:07 (22:07 UTC)

توقعات

تاريخ ووقت الإصدار 26 دقيقة قبل الساعة 21:41UTC
التوقعات صالحة من05 الساعة 22 UTC إلى 06 الساعة 18 UTC
ريح 11 عقدة من الشرق/الجنوب الشرقي
الرؤية: 10 كم
غيوم متفرقة على ارتفاع 1600 قدم
غيوم متفرقة على ارتفاع 4000 قدم
غيوم مفككة على ارتفاع 10000 قدم
زخات في الجوار
مؤقت
من 05 الساعة 22 UTC إلى 06 الساعة 02 UTC
الرؤية: 8.0 كم
غيوم متفرقة على ارتفاع 1400 قدم
غيوم مفككة على ارتفاع 2500 قدم
زخات من المطر

TAF: PTPN 052141Z 0522/0618 11011KT P6SM VCSH SCT016 SCT040 BKN100 TEMPO 0522/0602 5SM SHRA SCT014 BKN025

أرصاد الطقس والتوقعات من أكثر من 4000 مطار (تقارير الطقس للمطار METAR والتنبؤ بالطقس بالمطارTAF).

المحطات المتاحة هي النقط الصفراء والحمراء على الخريطة.

حرك المؤشر فوق النقطة لمعرفة اسم المحطة.

ثم انقر لمعرفة أرصاد وتوقعات الطقس.

لتغيير الخارطة: اضغط على الأزرار الخضراء مع رمز الصليب الأسود للتكبير. على الزر الأخضر مع شرطة للتصغير، أو على الأسهم الخضراء للخرائط المجاورة.


METAR-TAF: